createdAt,value
2022-12-08T00:02:26.077Z,99223.60
2022-12-08T00:07:48.217Z,99219.60
2022-12-08T00:12:51.271Z,99214.80
2022-12-08T00:17:54.481Z,99216.60
2022-12-08T00:22:57.589Z,99222.80
2022-12-08T00:28:00.797Z,99230.00
2022-12-08T00:33:03.900Z,99236.40
2022-12-08T00:38:07.006Z,99250.20
2022-12-08T00:43:10.114Z,99256.80
2022-12-08T00:48:13.221Z,99263.20
2022-12-08T00:53:16.326Z,99270.60
2022-12-08T00:58:19.352Z,99283.20
2022-12-08T01:03:22.623Z,99288.00
2022-12-08T01:08:25.899Z,99284.40
2022-12-08T01:13:28.954Z,99283.40
2022-12-08T01:18:32.999Z,99286.40
2022-12-08T01:23:36.094Z,99293.40
2022-12-08T01:28:40.387Z,99299.60
2022-12-08T01:33:44.950Z,99305.60
2022-12-08T01:38:48.174Z,99298.00
2022-12-08T01:44:08.569Z,99312.60
2022-12-08T01:49:19.782Z,99310.80
2022-12-08T01:54:28.256Z,99312.80
2022-12-08T01:59:37.969Z,99313.40
2022-12-08T02:04:41.184Z,99320.80
2022-12-08T02:09:45.491Z,99321.00
2022-12-08T02:14:48.626Z,99323.60
2022-12-08T02:20:22.860Z,99324.20
2022-12-08T02:25:31.600Z,99317.80
2022-12-08T02:31:07.367Z,99320.20
2022-12-08T02:36:36.929Z,99325.40
2022-12-08T02:41:54.559Z,99336.80
2022-12-08T02:47:12.705Z,99344.20
2022-12-08T02:52:15.722Z,99345.60
2022-12-08T02:58:02.773Z,99348.20
2022-12-08T03:03:17.729Z,99349.40
2022-12-08T03:08:42.393Z,99367.20
2022-12-08T03:13:51.692Z,99368.20
2022-12-08T03:19:17.668Z,99369.20
2022-12-08T03:24:23.501Z,99363.80
2022-12-08T03:29:27.035Z,99369.40
2022-12-08T03:34:31.490Z,99376.00
2022-12-08T03:39:34.562Z,99365.00
2022-12-08T03:44:37.681Z,99380.20
2022-12-08T03:49:41.036Z,99391.80
2022-12-08T03:54:44.188Z,99406.20
2022-12-08T03:59:47.501Z,99402.80
2022-12-08T04:04:51.319Z,99399.00
2022-12-08T04:09:54.327Z,99407.40
2022-12-08T04:14:57.332Z,99407.60
2022-12-08T04:20:00.434Z,99411.80
2022-12-08T04:25:04.567Z,99414.60
2022-12-08T04:30:08.985Z,99417.40
2022-12-08T04:35:12.051Z,99419.80
2022-12-08T04:40:15.636Z,99424.00
2022-12-08T04:45:18.940Z,99428.80
2022-12-08T04:50:22.450Z,99431.20
2022-12-08T04:55:25.768Z,99438.40
2022-12-08T05:00:28.867Z,99447.80
2022-12-08T05:05:31.999Z,99446.80
2022-12-08T05:10:35.184Z,99463.00
2022-12-08T05:15:38.305Z,99457.60
2022-12-08T05:20:41.405Z,99454.20
2022-12-08T05:25:44.405Z,99454.00
2022-12-08T05:30:48.329Z,99462.60
2022-12-08T05:35:51.443Z,99464.40
2022-12-08T05:40:54.537Z,99467.00
2022-12-08T05:45:57.733Z,99465.80
2022-12-08T05:51:02.182Z,99468.80
2022-12-08T05:56:05.714Z,99479.00
2022-12-08T06:01:30.672Z,99484.00
2022-12-08T06:06:35.977Z,99486.80
2022-12-08T06:11:39.190Z,99495.60
2022-12-08T06:16:42.494Z,99496.00
2022-12-08T06:21:45.809Z,99500.20
2022-12-08T06:26:49.126Z,99504.80
2022-12-08T06:31:53.236Z,99510.40
2022-12-08T06:36:56.660Z,99506.00
2022-12-08T06:42:18.821Z,99519.00
2022-12-08T06:47:26.223Z,99525.60
2022-12-08T06:52:29.641Z,99528.80
2022-12-08T06:57:32.781Z,99534.00
2022-12-08T07:02:35.944Z,99538.60
2022-12-08T07:07:39.206Z,99549.20
2022-12-08T07:12:42.370Z,99553.60
2022-12-08T07:17:45.582Z,99563.40
2022-12-08T07:22:53.187Z,99564.20
2022-12-08T07:27:56.201Z,99577.40
2022-12-08T07:32:59.294Z,99581.20
2022-12-08T07:38:03.119Z,99584.40
2022-12-08T07:43:06.169Z,99592.20
2022-12-08T07:48:09.436Z,99604.20
2022-12-08T07:53:13.185Z,99606.40
2022-12-08T07:58:16.262Z,99606.20
2022-12-08T08:03:19.899Z,99612.60
2022-12-08T08:08:23.171Z,99614.60
2022-12-08T08:13:26.303Z,99613.40
2022-12-08T08:18:29.710Z,99609.40
2022-12-08T08:23:33.831Z,99617.40
2022-12-08T08:28:37.356Z,99621.40
2022-12-08T08:33:40.466Z,99626.60
2022-12-08T08:38:44.387Z,99632.00
2022-12-08T08:43:47.492Z,99641.20
2022-12-08T08:48:50.622Z,99646.40
2022-12-08T08:53:53.718Z,99651.60
2022-12-08T08:58:56.932Z,99651.40
2022-12-08T09:04:00.463Z,99652.20
2022-12-08T09:09:04.157Z,99655.00
2022-12-08T09:14:07.407Z,99656.00
2022-12-08T09:19:11.302Z,99663.60
2022-12-08T09:24:17.300Z,99667.40
2022-12-08T09:29:20.574Z,99664.60
2022-12-08T09:34:23.903Z,99668.20
2022-12-08T09:39:27.194Z,99670.00
2022-12-08T09:44:35.958Z,99670.80
2022-12-08T09:50:07.986Z,99675.80
2022-12-08T09:55:49.119Z,99662.00
2022-12-08T10:00:52.733Z,99666.20
2022-12-08T10:06:18.466Z,99663.20
2022-12-08T10:11:41.132Z,99659.60
2022-12-08T10:16:52.205Z,99654.40
2022-12-08T10:21:58.036Z,99659.20
2022-12-08T10:27:03.423Z,99653.40
2022-12-08T10:32:23.050Z,99647.80
2022-12-08T10:37:26.190Z,99644.40
2022-12-08T10:42:46.225Z,99642.80
2022-12-08T10:48:00.752Z,99636.00
2022-12-08T10:53:21.665Z,99642.40
2022-12-08T10:58:43.570Z,99646.40
2022-12-08T11:04:01.761Z,99643.60
2022-12-08T11:09:24.034Z,99631.60
2022-12-08T11:14:44.859Z,99629.00
2022-12-08T11:20:21.838Z,99622.80
2022-12-08T11:25:27.883Z,99616.20
2022-12-08T11:30:54.576Z,99614.00
2022-12-08T11:36:09.669Z,99605.80
2022-12-08T11:41:20.455Z,99605.20
2022-12-08T11:46:35.593Z,99597.60
2022-12-08T11:51:47.244Z,99588.40
2022-12-08T11:56:57.689Z,99589.80
2022-12-08T12:02:04.677Z,99586.20
2022-12-08T12:07:40.202Z,99575.60
2022-12-08T12:13:12.700Z,99571.60
2022-12-08T12:18:34.128Z,99563.60
2022-12-08T12:24:03.876Z,99567.60
2022-12-08T12:29:20.140Z,99557.20
2022-12-08T12:34:48.354Z,99551.80
2022-12-08T12:40:07.355Z,99542.80
2022-12-08T12:45:33.487Z,99535.20
2022-12-08T12:50:52.794Z,99525.00
2022-12-08T12:56:03.633Z,99518.20
2022-12-08T13:01:12.930Z,99520.40
2022-12-08T13:06:43.456Z,99515.00
2022-12-08T13:11:55.733Z,99518.20
2022-12-08T13:17:02.072Z,99525.20
2022-12-08T13:22:46.965Z,99521.40
2022-12-08T13:27:55.483Z,99515.20
2022-12-08T13:33:18.448Z,99517.00
2022-12-08T13:38:30.445Z,99509.80
2022-12-08T13:44:02.224Z,99507.60
2022-12-08T13:56:05.540Z,99506.40
2022-12-08T14:00:18.388Z,99512.80
2022-12-08T14:05:47.558Z,99505.60
2022-12-08T14:10:59.973Z,99511.80
2022-12-08T14:16:03.109Z,99514.00
2022-12-08T14:21:20.901Z,99510.40
2022-12-08T14:26:25.571Z,99510.40
2022-12-08T14:31:29.660Z,99501.80
2022-12-08T14:36:34.134Z,99494.80
2022-12-08T14:41:37.976Z,99500.80
2022-12-08T14:47:10.355Z,99499.80
2022-12-08T14:52:14.679Z,99488.00
2022-12-08T14:57:19.022Z,99497.20
2022-12-08T15:02:32.206Z,99495.60
2022-12-08T15:07:53.105Z,99495.00
2022-12-08T15:13:26.711Z,99497.00
2022-12-08T15:18:39.788Z,99496.00
2022-12-08T15:23:50.247Z,99497.20
2022-12-08T15:28:55.155Z,99506.40
2022-12-08T15:33:58.317Z,99504.00
2022-12-08T15:39:01.802Z,99505.00
2022-12-08T15:44:05.049Z,99510.40
2022-12-08T15:49:18.716Z,99503.60
2022-12-08T15:54:23.208Z,99500.60
2022-12-08T15:59:26.417Z,99500.20
2022-12-08T16:09:53.928Z,99507.60
2022-12-08T16:20:28.156Z,99502.40
2022-12-08T16:26:16.171Z,99503.60
2022-12-08T16:31:10.286Z,99505.00
2022-12-08T16:36:16.336Z,99505.60
2022-12-08T16:41:38.385Z,99506.20
2022-12-08T16:46:41.684Z,99507.00
2022-12-08T16:51:44.893Z,99506.60
2022-12-08T16:56:47.994Z,99503.60
2022-12-08T17:01:51.310Z,99493.80
2022-12-08T17:06:54.666Z,99496.60
2022-12-08T17:12:03.452Z,99498.80
2022-12-08T17:17:07.442Z,99502.80
2022-12-08T17:22:10.708Z,99497.80
2022-12-08T17:27:14.015Z,99501.40
2022-12-08T17:32:18.083Z,99495.40
2022-12-08T17:37:21.344Z,99503.40
2022-12-08T17:42:26.411Z,99504.80
2022-12-08T17:47:29.512Z,99511.60
2022-12-08T17:52:32.920Z,99507.00
2022-12-08T17:57:36.124Z,99509.40
2022-12-08T18:02:39.376Z,99494.80
2022-12-08T18:07:45.901Z,99489.60
2022-12-08T18:12:49.967Z,99490.60
2022-12-08T18:17:53.163Z,99478.60
2022-12-08T18:22:57.079Z,99480.40
2022-12-08T18:28:00.411Z,99481.00
2022-12-08T18:33:06.621Z,99474.40
2022-12-08T18:38:09.849Z,99468.40
2022-12-08T18:43:13.190Z,99463.60
2022-12-08T18:48:16.511Z,99453.20
2022-12-08T18:53:19.646Z,99455.20
2022-12-08T18:58:23.028Z,99461.60
2022-12-08T19:03:26.176Z,99465.80
2022-12-08T19:08:31.488Z,99464.40
2022-12-08T19:13:35.012Z,99458.20
2022-12-08T19:18:39.344Z,99456.20
2022-12-08T19:23:42.858Z,99447.60
2022-12-08T19:28:46.006Z,99451.80
2022-12-08T19:33:49.482Z,99451.80
2022-12-08T19:39:11.245Z,99452.40
2022-12-08T19:44:34.399Z,99445.60
2022-12-08T19:49:38.636Z,99444.00
2022-12-08T19:54:41.860Z,99444.40
2022-12-08T19:59:45.054Z,99439.00
2022-12-08T20:04:48.297Z,99440.60
2022-12-08T20:09:51.668Z,99444.00
2022-12-08T20:14:54.806Z,99447.60
2022-12-08T20:20:00.505Z,99451.60
2022-12-08T20:25:06.922Z,99443.40
2022-12-08T20:30:16.779Z,99438.20
2022-12-08T20:35:22.165Z,99443.00
2022-12-08T20:40:25.315Z,99446.60
2022-12-08T20:45:28.622Z,99451.60
2022-12-08T20:50:31.953Z,99459.40
2022-12-08T20:55:38.526Z,99464.60
2022-12-08T21:00:43.487Z,99466.20
2022-12-08T21:05:52.913Z,99471.00
2022-12-08T21:10:57.478Z,99472.80
2022-12-08T21:16:01.078Z,99469.60
2022-12-08T21:21:09.221Z,99475.40
2022-12-08T21:26:26.592Z,99482.20
2022-12-08T21:31:32.134Z,99486.20
2022-12-08T21:36:35.486Z,99495.00
2022-12-08T21:41:58.399Z,99498.00
2022-12-08T21:47:02.121Z,99500.60
2022-12-08T21:52:05.960Z,99503.80
2022-12-08T21:57:09.320Z,99500.40
2022-12-08T22:02:19.457Z,99506.80
2022-12-08T22:07:25.733Z,99513.20
2022-12-08T22:12:29.139Z,99504.60
2022-12-08T22:17:36.951Z,99508.20
2022-12-08T22:22:41.829Z,99512.60
2022-12-08T22:27:45.189Z,99510.80
2022-12-08T22:32:48.779Z,99519.60
2022-12-08T22:37:52.099Z,99515.60
2022-12-08T22:42:55.382Z,99516.00
2022-12-08T22:47:58.591Z,99520.80
2022-12-08T22:53:02.115Z,99522.80
2022-12-08T22:58:05.376Z,99523.00
2022-12-08T23:03:08.856Z,99531.40
2022-12-08T23:08:16.497Z,99532.60
2022-12-08T23:13:21.922Z,99535.00
2022-12-08T23:18:25.116Z,99536.40
2022-12-08T23:23:28.233Z,99536.60
2022-12-08T23:34:03.457Z,99531.00
2022-12-08T23:39:07.346Z,99536.40
2022-12-08T23:44:12.410Z,99531.20
2022-12-08T23:49:16.522Z,99541.00
2022-12-08T23:54:19.930Z,99540.40
2022-12-08T23:59:23.237Z,99536.20
